Terminal Aerodrome Forecast
Issued by NWS Blacksburg, VA

Home | Current Version | Previous Version | Text Only | Print | Product List | Glossary On
Versions: 1 2 3 4 5 6 7 8 9 10 11 12 13 14 15 16 17 18 19 20 21 22 23 24 25 26 27 28 29 30 31 32
218
FTUS41 KRNK 191724
TAFDAN
TAF
KDAN 191724Z 1918/2018 VRB03KT P6SM SCT250
     FM200400 00000KT P6SM BKN080
     FM200900 09005KT 4SM -RA OVC035
     FM201200 09007KT 2SM -RA OVC015
     FM201400 VRB03KT 1 1/2SM -RA BR OVC003
     FM201700 VRB03KT 4SM -RA SCT007 OVC015=

USA.gov is the U.S. government's official web portal to all federal, state and local government web resources and services.